TimePST,TemperatureF,Dew PointF,Humidity,Sea Level PressureIn,VisibilityMPH,Wind Direction,Wind SpeedMPH,Gust SpeedMPH,PrecipitationIn,Events,Conditions,WindDirDegrees,DateUTC
12:54 AM,32.0,32.0,100,30.50,0.2,North,4.6,-,N/A,,Overcast,350,2013-01-17 08:54:00
1:54 AM,30.9,30.9,100,30.49,0.2,North,4.6,-,N/A,,Mist,10,2013-01-17 09:54:00
2:54 AM,30.9,30.9,100,30.48,0.2,North,4.6,-,N/A,Fog,Light Freezing Fog,10,2013-01-17 10:54:00
3:54 AM,30.9,30.9,100,30.48,0.2,North,6.9,-,N/A,,Mist,360,2013-01-17 11:54:00
4:54 AM,30.9,30.9,100,30.47,0.2,NNE,6.9,-,N/A,,Mist,30,2013-01-17 12:54:00
5:54 AM,30.9,30.9,100,30.46,0.5,NE,8.1,-,N/A,,Mist,40,2013-01-17 13:54:00
6:54 AM,30.9,30.0,96,30.45,1.0,North,3.5,-,N/A,,Mist,10,2013-01-17 14:54:00
7:54 AM,30.9,30.9,100,30.46,0.5,North,5.8,-,N/A,Fog,Light Freezing Fog,350,2013-01-17 15:54:00
8:54 AM,30.9,30.9,100,30.46,0.5,North,4.6,-,N/A,Fog,Light Freezing Fog,360,2013-01-17 16:54:00
9:05 AM,30.2,30.2,100,30.45,0.2,North,5.8,-,N/A,Fog,Light Freezing Fog,10,2013-01-17 17:05:00
9:35 AM,32.0,30.2,93,30.45,0.5,North,5.8,-,N/A,Fog,Fog,360,2013-01-17 17:35:00
9:40 AM,32.0,32.0,100,30.45,0.2,North,3.5,-,N/A,Fog,Fog,360,2013-01-17 17:40:00
9:54 AM,32.0,32.0,100,30.47,0.2,North,4.6,-,N/A,Fog,Fog,360,2013-01-17 17:54:00
10:15 AM,32.0,32.0,100,30.45,0.2,North,5.8,-,N/A,Fog,Fog,360,2013-01-17 18:15:00
10:40 AM,32.0,32.0,100,30.44,0.5,Variable,4.6,-,N/A,Fog,Fog,0,2013-01-17 18:40:00
10:54 AM,32.0,32.0,100,30.45,0.5,NNE,5.8,-,N/A,Fog,Fog,30,2013-01-17 18:54:00
11:54 AM,32.0,32.0,100,30.42,1.5,Variable,4.6,-,N/A,,Overcast,0,2013-01-17 19:54:00
12:43 PM,32.0,32.0,100,30.39,2.5,North,5.8,-,N/A,,Overcast,350,2013-01-17 20:43:00
12:54 PM,32.0,32.0,100,30.40,2.5,NNE,4.6,-,N/A,,Overcast,30,2013-01-17 20:54:00
1:05 PM,33.8,33.8,100,30.38,1.5,North,3.5,-,N/A,,Overcast,10,2013-01-17 21:05:00
1:12 PM,33.8,33.8,100,30.37,0.8,NNE,5.8,-,N/A,,Overcast,30,2013-01-17 21:12:00
1:54 PM,33.1,33.1,100,30.38,0.8,NNE,4.6,-,N/A,,Overcast,30,2013-01-17 21:54:00
2:14 PM,33.8,33.8,100,30.35,0.2,Calm,Calm,-,N/A,Fog,Fog,0,2013-01-17 22:14:00
2:54 PM,33.1,33.1,100,30.36,0.2,NNW,6.9,-,N/A,Fog,Fog,340,2013-01-17 22:54:00
3:54 PM,33.1,33.1,100,30.36,0.2,Calm,Calm,-,N/A,Fog,Fog,0,2013-01-17 23:54:00
4:54 PM,33.1,33.1,100,30.36,0.2,North,6.9,-,N/A,Fog,Fog,360,2013-01-18 00:54:00
5:54 PM,33.1,33.1,100,30.35,0.2,Calm,Calm,-,N/A,Fog,Fog,0,2013-01-18 01:54:00
6:38 PM,33.8,32.0,93,30.34,0.5,East,3.5,-,N/A,Fog,Fog,80,2013-01-18 02:38:00
6:54 PM,32.0,32.0,100,30.35,0.2,East,3.5,-,N/A,Fog,Fog,90,2013-01-18 02:54:00
7:54 PM,32.0,32.0,100,30.35,0.2,ENE,4.6,-,N/A,Fog,Fog,60,2013-01-18 03:54:00
8:54 PM,32.0,32.0,100,30.35,0.2,ENE,3.5,-,N/A,Fog,Fog,70,2013-01-18 04:54:00
9:54 PM,32.0,32.0,100,30.35,0.2,North,3.5,-,N/A,Fog,Fog,350,2013-01-18 05:54:00
10:54 PM,30.9,30.9,100,30.35,0.2,Calm,Calm,-,N/A,Fog,Light Freezing Fog,0,2013-01-18 06:54:00
11:54 PM,30.9,30.9,100,30.35,0.2,Calm,Calm,-,N/A,Fog,Light Freezing Fog,0,2013-01-18 07:54:00